createdAt,value
2018-10-03T00:02:12.536Z,12.80
2018-10-03T00:04:40.673Z,11.87
2018-10-03T00:07:08.893Z,12.20
2018-10-03T00:09:37.105Z,12.93
2018-10-03T00:12:05.314Z,15.20
2018-10-03T00:14:33.492Z,13.30
2018-10-03T00:17:01.646Z,13.83
2018-10-03T00:19:29.840Z,12.43
2018-10-03T00:21:59.965Z,13.80
2018-10-03T00:24:28.130Z,12.87
2018-10-03T00:26:56.293Z,13.53
2018-10-03T00:29:24.445Z,11.83
2018-10-03T00:31:52.630Z,13.80
2018-10-03T00:34:20.813Z,11.70
2018-10-03T00:36:49.002Z,11.07
2018-10-03T00:39:17.185Z,15.67
2018-10-03T00:41:45.397Z,11.40
2018-10-03T00:44:13.565Z,10.63
2018-10-03T00:46:41.745Z,13.07
2018-10-03T00:49:09.940Z,12.97
2018-10-03T00:51:38.500Z,11.70
2018-10-03T00:54:06.845Z,13.50
2018-10-03T00:56:35.066Z,11.17
2018-10-03T00:59:03.224Z,12.90
2018-10-03T01:01:31.392Z,10.50
2018-10-03T01:03:59.677Z,15.90
2018-10-03T01:06:27.871Z,12.23
2018-10-03T01:08:56.025Z,12.67
2018-10-03T01:11:24.204Z,10.33
2018-10-03T01:13:52.409Z,10.40
2018-10-03T01:16:20.580Z,14.00
2018-10-03T01:18:48.728Z,9.97
2018-10-03T01:21:16.918Z,11.57
2018-10-03T01:23:45.044Z,10.50
2018-10-03T01:26:13.193Z,9.53
2018-10-03T01:28:41.342Z,9.90
2018-10-03T01:31:09.501Z,10.20
2018-10-03T01:33:37.665Z,11.17
2018-10-03T01:36:05.816Z,10.97
2018-10-03T01:38:34.021Z,12.57
2018-10-03T01:41:02.226Z,12.40
2018-10-03T01:43:30.352Z,10.63
2018-10-03T01:45:58.473Z,11.80
2018-10-03T01:48:26.636Z,11.30
2018-10-03T01:50:54.782Z,12.27
2018-10-03T01:53:23.053Z,10.40
2018-10-03T01:55:51.196Z,11.23
2018-10-03T01:58:19.420Z,11.80
2018-10-03T02:00:47.573Z,10.50
2018-10-03T02:03:15.769Z,11.83
2018-10-03T02:05:43.924Z,11.80
2018-10-03T02:08:12.277Z,11.30
2018-10-03T02:10:40.401Z,12.07
2018-10-03T02:13:08.529Z,11.40
2018-10-03T02:15:36.770Z,10.10
2018-10-03T02:18:04.953Z,12.13
2018-10-03T02:20:33.323Z,11.13
2018-10-03T02:23:01.458Z,11.33
2018-10-03T02:25:29.637Z,10.27
2018-10-03T02:27:57.824Z,10.67
2018-10-03T02:30:26.201Z,10.37
2018-10-03T02:32:54.365Z,8.60
2018-10-03T02:35:22.509Z,11.03
2018-10-03T02:37:50.784Z,11.10
2018-10-03T02:40:18.977Z,12.73
2018-10-03T02:42:47.173Z,14.03
2018-10-03T02:45:19.493Z,11.93
2018-10-03T02:47:48.477Z,14.80
2018-10-03T02:50:16.657Z,11.50
2018-10-03T02:52:44.806Z,11.90
2018-10-03T02:55:13.041Z,10.80
2018-10-03T02:57:41.213Z,13.67
2018-10-03T03:00:09.428Z,12.10
2018-10-03T03:02:37.569Z,11.37
2018-10-03T03:05:05.737Z,11.87
2018-10-03T03:07:33.888Z,9.50
2018-10-03T03:10:02.022Z,11.43
2018-10-03T03:12:30.149Z,13.23
2018-10-03T03:14:58.297Z,8.97
2018-10-03T03:17:26.453Z,10.43
2018-10-03T03:19:54.625Z,11.07
2018-10-03T03:22:22.801Z,12.40
2018-10-03T03:24:51.882Z,14.47
2018-10-03T03:27:20.076Z,14.47
2018-10-03T03:29:49.101Z,12.70
2018-10-03T03:32:17.249Z,14.70
2018-10-03T03:34:45.428Z,12.50
2018-10-03T03:37:13.593Z,10.67
2018-10-03T03:39:41.849Z,12.10
2018-10-03T03:42:10.432Z,13.70
2018-10-03T03:44:38.608Z,14.00
2018-10-03T03:47:06.733Z,15.70
2018-10-03T03:49:34.893Z,13.93
2018-10-03T03:52:03.114Z,15.10
2018-10-03T03:54:31.313Z,16.07
2018-10-03T03:57:06.246Z,16.37
2018-10-03T03:59:34.444Z,12.50
2018-10-03T04:02:02.685Z,16.73
2018-10-03T04:04:30.840Z,17.50
2018-10-03T04:06:59.838Z,16.80
2018-10-03T04:09:28.006Z,12.50
2018-10-03T04:11:57.122Z,17.70
2018-10-03T04:14:25.356Z,11.73
2018-10-03T04:16:53.552Z,15.40
2018-10-03T04:19:21.784Z,20.23
2018-10-03T04:21:49.961Z,19.00
2018-10-03T04:24:18.149Z,18.37
2018-10-03T04:26:46.333Z,14.30
2018-10-03T04:29:14.501Z,17.57
2018-10-03T04:31:42.756Z,18.60
2018-10-03T04:34:10.988Z,15.97
2018-10-03T04:36:39.166Z,17.47
2018-10-03T04:39:08.257Z,22.40
2018-10-03T04:41:36.978Z,21.37
2018-10-03T04:44:05.161Z,19.60
2018-10-03T04:46:33.374Z,15.33
2018-10-03T04:49:01.574Z,17.93
2018-10-03T04:51:30.558Z,14.30
2018-10-03T04:53:58.737Z,16.70
2018-10-03T04:56:26.956Z,24.70
2018-10-03T04:58:55.133Z,14.97
2018-10-03T05:01:23.309Z,16.10
2018-10-03T05:03:51.501Z,15.33
2018-10-03T05:06:19.656Z,14.60
2018-10-03T05:08:47.879Z,16.87
2018-10-03T05:11:16.057Z,20.70
2018-10-03T05:13:44.203Z,18.27
2018-10-03T05:16:13.079Z,16.57
2018-10-03T05:18:41.262Z,17.50
2018-10-03T05:21:09.413Z,15.03
2018-10-03T05:23:37.625Z,14.33
2018-10-03T05:26:05.801Z,11.83
2018-10-03T05:28:33.971Z,17.83
2018-10-03T05:31:02.101Z,12.50
2018-10-03T05:33:30.873Z,13.80
2018-10-03T05:35:59.032Z,14.20
2018-10-03T05:38:27.196Z,13.63
2018-10-03T05:40:55.412Z,13.67
2018-10-03T05:43:23.563Z,18.77
2018-10-03T05:45:52.058Z,17.50
2018-10-03T05:48:20.298Z,14.67
2018-10-03T05:50:48.469Z,19.43
2018-10-03T05:53:16.642Z,15.00
2018-10-03T05:55:44.841Z,17.50
2018-10-03T05:58:13.060Z,18.50
2018-10-03T06:00:41.233Z,16.03
2018-10-03T06:03:09.770Z,16.73
2018-10-03T06:05:37.949Z,15.83
2018-10-03T06:08:06.109Z,15.43
2018-10-03T06:10:34.313Z,15.80
2018-10-03T06:13:02.751Z,16.70
2018-10-03T06:15:30.910Z,17.70
2018-10-03T06:17:59.096Z,20.73
2018-10-03T06:20:27.244Z,14.53
2018-10-03T06:22:55.421Z,20.73
2018-10-03T06:25:23.649Z,14.67
2018-10-03T06:27:51.962Z,16.70
2018-10-03T06:30:20.073Z,15.40
2018-10-03T06:32:48.591Z,17.87
2018-10-03T06:35:16.818Z,15.00
2018-10-03T06:37:44.973Z,20.20
2018-10-03T06:40:13.247Z,15.20
2018-10-03T06:42:41.401Z,18.13
2018-10-03T06:45:09.854Z,18.70
2018-10-03T06:47:38.009Z,19.63
2018-10-03T06:50:06.162Z,15.60
2018-10-03T06:52:34.466Z,13.37
2018-10-03T06:55:03.579Z,13.03
2018-10-03T06:57:31.769Z,17.00
2018-10-03T06:59:59.901Z,15.70
2018-10-03T07:02:28.049Z,14.00
2018-10-03T07:04:56.253Z,15.00
2018-10-03T07:07:24.421Z,15.03
2018-10-03T07:09:52.608Z,19.57
2018-10-03T07:12:20.809Z,19.07
2018-10-03T07:14:48.962Z,17.60
2018-10-03T07:17:17.100Z,10.70
2018-10-03T07:19:45.241Z,10.03
2018-10-03T07:22:13.407Z,13.30
2018-10-03T07:24:41.797Z,10.17
2018-10-03T07:27:10.035Z,7.33
2018-10-03T07:29:38.425Z,8.80
2018-10-03T07:32:06.642Z,10.67
2018-10-03T07:34:34.784Z,9.53
2018-10-03T07:37:03.757Z,11.60
2018-10-03T07:39:31.907Z,9.07
2018-10-03T07:42:00.165Z,11.90
2018-10-03T07:44:28.351Z,10.77
2018-10-03T07:46:56.525Z,11.63
2018-10-03T07:49:24.747Z,9.87
2018-10-03T07:51:52.925Z,16.80
2018-10-03T07:54:21.069Z,12.20
2018-10-03T07:56:49.196Z,15.27
2018-10-03T07:59:17.397Z,10.03
2018-10-03T08:01:45.600Z,10.70
2018-10-03T08:04:13.750Z,11.07
2018-10-03T08:06:41.997Z,11.57
2018-10-03T08:09:10.949Z,9.40
2018-10-03T08:11:39.425Z,9.47
2018-10-03T08:14:07.577Z,7.07
2018-10-03T08:16:35.775Z,12.93
2018-10-03T08:19:03.925Z,15.60
2018-10-03T08:21:32.645Z,10.90
2018-10-03T08:24:00.775Z,14.53
2018-10-03T08:26:28.970Z,9.10
2018-10-03T08:28:57.181Z,17.97
2018-10-03T08:31:25.368Z,13.03
2018-10-03T08:33:53.645Z,9.00
2018-10-03T08:36:21.845Z,8.40
2018-10-03T08:38:50.060Z,11.27
2018-10-03T08:41:19.025Z,9.60
2018-10-03T08:43:47.181Z,7.50
2018-10-03T08:46:15.359Z,12.13
2018-10-03T08:48:43.505Z,11.43
2018-10-03T08:51:11.628Z,7.20
2018-10-03T08:53:39.857Z,10.00
2018-10-03T08:56:08.020Z,6.80
2018-10-03T08:58:36.405Z,9.20
2018-10-03T09:01:04.404Z,13.37
2018-10-03T09:03:32.561Z,11.17
2018-10-03T09:06:00.753Z,7.37
2018-10-03T09:08:28.922Z,8.60
2018-10-03T09:10:57.073Z,9.13
2018-10-03T09:13:25.249Z,8.90
2018-10-03T09:15:53.421Z,9.23
2018-10-03T09:18:21.601Z,10.80
2018-10-03T09:20:49.775Z,4.77
2018-10-03T09:23:17.928Z,8.33
2018-10-03T09:25:46.109Z,9.87
2018-10-03T09:28:14.290Z,6.80
2018-10-03T09:30:42.383Z,9.97
2018-10-03T09:33:10.625Z,8.30
2018-10-03T09:35:38.829Z,11.00
2018-10-03T09:38:07.049Z,7.00
2018-10-03T09:40:35.877Z,6.57
2018-10-03T09:43:04.021Z,8.73
2018-10-03T09:45:32.859Z,6.47
2018-10-03T09:48:01.032Z,9.80
2018-10-03T09:50:29.184Z,14.77
2018-10-03T09:52:57.369Z,6.47
2018-10-03T09:55:25.558Z,5.80
2018-10-03T09:57:53.732Z,10.27
2018-10-03T10:00:27.557Z,5.63
2018-10-03T10:02:55.658Z,7.47
2018-10-03T10:05:23.813Z,7.13
2018-10-03T10:07:52.089Z,7.07
2018-10-03T10:10:20.303Z,7.90
2018-10-03T10:12:48.424Z,7.40
2018-10-03T10:15:16.565Z,9.40
2018-10-03T10:17:44.745Z,6.70
2018-10-03T10:20:12.897Z,10.00
2018-10-03T10:22:41.711Z,9.60
2018-10-03T10:25:09.859Z,7.57
2018-10-03T10:27:38.032Z,5.63
2018-10-03T10:30:06.196Z,5.07
2018-10-03T10:32:34.362Z,11.83
2018-10-03T10:35:03.200Z,5.83
2018-10-03T10:37:31.472Z,5.03
2018-10-03T10:39:59.924Z,8.70
2018-10-03T10:42:28.077Z,6.33
2018-10-03T10:44:56.249Z,7.53
2018-10-03T10:47:24.397Z,4.03
2018-10-03T10:49:52.569Z,7.63
2018-10-03T10:52:20.761Z,4.77
2018-10-03T10:54:49.321Z,6.90
2018-10-03T10:57:17.526Z,7.10
2018-10-03T10:59:45.750Z,4.93
2018-10-03T11:02:13.901Z,9.50
2018-10-03T11:04:42.140Z,7.20
2018-10-03T11:07:11.281Z,6.37
2018-10-03T11:09:39.449Z,7.67
2018-10-03T11:12:07.629Z,7.30
2018-10-03T11:14:35.761Z,7.37
2018-10-03T11:17:03.943Z,7.10
2018-10-03T11:19:32.229Z,4.73
2018-10-03T11:22:00.389Z,5.13
2018-10-03T11:24:28.671Z,9.23
2018-10-03T11:26:56.734Z,6.30
2018-10-03T11:29:24.901Z,6.87
2018-10-03T11:31:53.025Z,10.17
2018-10-03T11:34:21.225Z,6.77
2018-10-03T11:36:49.420Z,11.13
2018-10-03T11:39:17.581Z,8.50
2018-10-03T11:41:45.801Z,7.43
2018-10-03T11:44:14.001Z,5.80
2018-10-03T11:46:42.150Z,6.23
2018-10-03T11:49:10.329Z,6.63
2018-10-03T11:51:38.828Z,6.30
2018-10-03T11:54:06.990Z,4.63
2018-10-03T11:56:35.178Z,9.27
2018-10-03T11:59:03.375Z,7.60
2018-10-03T12:01:31.544Z,4.23
2018-10-03T12:03:59.698Z,5.83
2018-10-03T12:06:27.887Z,7.07
2018-10-03T12:08:56.156Z,7.63
2018-10-03T12:11:24.326Z,5.90
2018-10-03T12:13:52.566Z,3.57
2018-10-03T12:16:20.733Z,6.47
2018-10-03T12:18:48.917Z,6.50
2018-10-03T12:21:17.109Z,8.70
2018-10-03T12:23:45.256Z,7.70
2018-10-03T12:26:14.273Z,4.67
2018-10-03T12:28:43.386Z,6.23
2018-10-03T12:31:11.529Z,9.97
2018-10-03T12:33:39.737Z,7.70
2018-10-03T12:36:07.841Z,6.47
2018-10-03T12:38:35.965Z,8.50
2018-10-03T12:41:04.126Z,4.63
2018-10-03T12:43:32.297Z,7.60
2018-10-03T12:46:00.476Z,6.90
2018-10-03T12:48:29.009Z,9.90
2018-10-03T12:50:57.180Z,6.60
2018-10-03T12:53:25.349Z,9.63
2018-10-03T12:55:53.521Z,4.07
2018-10-03T12:58:21.688Z,11.10
2018-10-03T13:00:50.429Z,4.20
2018-10-03T13:03:18.621Z,7.73
2018-10-03T13:05:47.730Z,5.43
2018-10-03T13:08:15.925Z,7.30
2018-10-03T13:10:44.117Z,5.20
2018-10-03T13:13:12.261Z,8.43
2018-10-03T13:15:40.404Z,4.73
2018-10-03T13:18:08.560Z,9.63
2018-10-03T13:20:36.713Z,8.33
2018-10-03T13:23:04.881Z,8.40
2018-10-03T13:25:33.009Z,9.63
2018-10-03T13:28:01.195Z,7.67
2018-10-03T13:30:29.393Z,8.10
2018-10-03T13:32:57.544Z,7.40
2018-10-03T13:35:25.693Z,7.00
2018-10-03T13:37:53.848Z,8.70
2018-10-03T13:40:21.997Z,7.63
2018-10-03T13:42:50.135Z,5.37
2018-10-03T13:45:18.262Z,6.53
2018-10-03T13:47:47.913Z,9.20
2018-10-03T13:50:16.093Z,6.10
2018-10-03T13:52:44.269Z,12.33
2018-10-03T13:55:12.465Z,5.63
2018-10-03T13:57:40.625Z,4.60
2018-10-03T14:00:09.024Z,5.53
2018-10-03T14:02:37.187Z,7.80
2018-10-03T14:05:05.401Z,9.70
2018-10-03T14:07:33.577Z,6.57
2018-10-03T14:10:02.525Z,6.17
2018-10-03T14:12:30.744Z,6.03
2018-10-03T14:14:58.891Z,5.27
2018-10-03T14:17:27.065Z,8.57
2018-10-03T14:19:55.198Z,6.67
2018-10-03T14:22:23.456Z,4.23
2018-10-03T14:24:51.959Z,10.10
2018-10-03T14:27:20.184Z,5.20
2018-10-03T14:29:48.417Z,4.97
2018-10-03T14:32:16.598Z,11.00
2018-10-03T14:34:44.765Z,7.37
2018-10-03T14:37:12.926Z,6.50
2018-10-03T14:39:41.100Z,8.03
2018-10-03T14:42:09.270Z,7.10
2018-10-03T14:44:37.437Z,6.87
2018-10-03T14:47:05.651Z,7.30
2018-10-03T14:49:33.861Z,8.47
2018-10-03T14:52:02.117Z,6.30
2018-10-03T14:54:30.248Z,11.40
2018-10-03T14:56:58.962Z,5.30
2018-10-03T14:59:27.101Z,10.50
2018-10-03T15:01:55.265Z,18.93
2018-10-03T15:04:23.480Z,6.50
2018-10-03T15:06:51.697Z,8.53
2018-10-03T15:09:19.833Z,7.93
2018-10-03T15:11:47.997Z,7.27
2018-10-03T15:14:16.173Z,5.57
2018-10-03T15:16:44.349Z,8.87
2018-10-03T15:19:12.508Z,7.97
2018-10-03T15:21:40.690Z,4.90
2018-10-03T15:24:08.897Z,6.97
2018-10-03T15:26:37.057Z,6.00
2018-10-03T15:29:05.265Z,5.70
2018-10-03T15:31:33.436Z,9.70
2018-10-03T15:34:01.689Z,5.87
2018-10-03T15:36:30.281Z,9.27
2018-10-03T15:38:58.476Z,9.57
2018-10-03T15:41:26.926Z,8.00
2018-10-03T15:43:55.164Z,7.90
2018-10-03T15:46:23.318Z,11.37
2018-10-03T15:48:51.483Z,8.23
2018-10-03T15:51:19.617Z,6.77
2018-10-03T15:53:47.801Z,6.33
2018-10-03T15:56:15.989Z,8.80
2018-10-03T15:58:44.152Z,8.23
2018-10-03T16:01:12.317Z,8.63
2018-10-03T16:03:40.457Z,12.00
2018-10-03T16:06:08.649Z,10.97
2018-10-03T16:08:36.813Z,6.43
2018-10-03T16:11:05.376Z,8.17
2018-10-03T16:13:33.553Z,9.30
2018-10-03T16:16:02.645Z,7.37
2018-10-03T16:18:30.805Z,8.27
2018-10-03T16:20:58.952Z,7.27
2018-10-03T16:23:27.121Z,7.23
2018-10-03T16:25:55.321Z,6.80
2018-10-03T16:28:23.508Z,9.10
2018-10-03T16:30:52.573Z,7.00
2018-10-03T16:33:20.728Z,7.70
2018-10-03T16:35:49.651Z,8.37
2018-10-03T16:38:17.835Z,9.87
2018-10-03T16:40:46.009Z,9.00
2018-10-03T16:43:14.180Z,10.30
2018-10-03T16:45:42.357Z,7.20
2018-10-03T16:48:10.521Z,8.83
2018-10-03T16:50:38.689Z,11.80
2018-10-03T16:53:06.876Z,9.23
2018-10-03T16:55:35.818Z,11.73
2018-10-03T16:58:03.995Z,6.40
2018-10-03T17:00:32.173Z,8.40
2018-10-03T17:03:00.388Z,12.43
2018-10-03T17:05:28.589Z,9.63
2018-10-03T17:07:56.753Z,10.43
2018-10-03T17:10:24.884Z,9.30
2018-10-03T17:12:53.012Z,13.07
2018-10-03T17:15:21.194Z,13.63
2018-10-03T17:17:49.907Z,11.70
2018-10-03T17:20:18.093Z,9.43
2018-10-03T17:22:46.299Z,10.70
2018-10-03T17:25:14.466Z,9.97
2018-10-03T17:27:42.764Z,7.97
2018-10-03T17:30:10.881Z,9.43
2018-10-03T17:32:39.014Z,7.80
2018-10-03T17:35:07.185Z,5.93
2018-10-03T17:37:35.350Z,6.03
2018-10-03T17:40:03.541Z,11.80
2018-10-03T17:42:31.704Z,11.07
2018-10-03T17:44:59.907Z,9.57
2018-10-03T17:47:28.053Z,9.07
2018-10-03T17:49:56.236Z,17.03
2018-10-03T17:52:24.453Z,10.47
2018-10-03T17:54:52.615Z,10.30
2018-10-03T17:57:20.785Z,6.70
2018-10-03T17:59:48.937Z,11.40
2018-10-03T18:02:17.458Z,7.67
2018-10-03T18:04:45.613Z,13.43
2018-10-03T18:07:13.770Z,5.03
2018-10-03T18:09:41.926Z,10.17
2018-10-03T18:12:10.096Z,6.87
2018-10-03T18:14:38.255Z,8.70
2018-10-03T18:17:06.457Z,8.30
2018-10-03T18:19:34.642Z,9.03
2018-10-03T18:22:02.869Z,16.23
2018-10-03T18:24:31.584Z,9.70
2018-10-03T18:26:59.765Z,8.47
2018-10-03T18:29:27.938Z,9.67
2018-10-03T18:31:56.181Z,9.80
2018-10-03T18:34:24.368Z,11.80
2018-10-03T18:36:52.557Z,8.67
2018-10-03T18:39:20.799Z,18.10
2018-10-03T18:41:49.321Z,8.43
2018-10-03T18:44:17.513Z,12.93
2018-10-03T18:46:45.674Z,14.57
2018-10-03T18:49:13.865Z,14.27
2018-10-03T18:51:42.083Z,15.10
2018-10-03T18:54:10.489Z,9.80
2018-10-03T18:56:43.580Z,15.77
2018-10-03T18:59:11.785Z,9.17
2018-10-03T19:01:39.962Z,8.20
2018-10-03T19:04:08.156Z,8.03
2018-10-03T19:06:36.313Z,14.10
2018-10-03T19:09:07.633Z,10.03
2018-10-03T19:11:35.825Z,13.27
2018-10-03T19:14:04.002Z,9.40
2018-10-03T19:16:32.137Z,9.77
2018-10-03T19:19:00.402Z,11.50
2018-10-03T19:21:28.577Z,9.43
2018-10-03T19:23:56.753Z,14.77
2018-10-03T19:26:25.113Z,12.70
2018-10-03T19:28:53.148Z,12.30
2018-10-03T19:31:21.334Z,12.80
2018-10-03T19:33:49.604Z,11.20
2018-10-03T19:36:17.975Z,12.80
2018-10-03T19:38:46.143Z,10.10
2018-10-03T19:41:14.341Z,11.67
2018-10-03T19:43:42.469Z,10.00
2018-10-03T19:46:10.625Z,15.40
2018-10-03T19:48:38.760Z,10.87
2018-10-03T19:51:06.902Z,8.73
2018-10-03T19:53:36.309Z,11.20
2018-10-03T19:56:04.787Z,15.77
2018-10-03T19:58:33.143Z,15.47
2018-10-03T20:01:01.349Z,9.23
2018-10-03T20:03:29.615Z,10.13
2018-10-03T20:05:57.637Z,16.60
2018-10-03T20:08:25.781Z,11.60
2018-10-03T20:10:53.929Z,14.53
2018-10-03T20:13:22.409Z,19.10
2018-10-03T20:15:51.093Z,12.67
2018-10-03T20:18:19.488Z,13.43
2018-10-03T20:20:47.682Z,18.13
2018-10-03T20:23:15.834Z,17.80
2018-10-03T20:25:45.390Z,13.70
2018-10-03T20:28:13.544Z,14.03
2018-10-03T20:30:41.809Z,11.70
2018-10-03T20:33:09.989Z,8.00
2018-10-03T20:35:38.436Z,8.50
2018-10-03T20:38:06.579Z,8.97
2018-10-03T20:40:34.765Z,15.33
2018-10-03T20:43:03.865Z,20.50
2018-10-03T20:45:32.045Z,13.40
2018-10-03T20:48:00.241Z,18.23
2018-10-03T20:50:29.197Z,12.60
2018-10-03T20:52:57.398Z,19.17
2018-10-03T20:55:25.541Z,11.10
2018-10-03T20:57:53.740Z,12.83
2018-10-03T21:00:21.974Z,12.10
2018-10-03T21:02:50.129Z,11.10
2018-10-03T21:05:18.330Z,10.90
2018-10-03T21:07:46.440Z,11.53
2018-10-03T21:10:14.648Z,15.10
2018-10-03T21:12:42.793Z,9.47
2018-10-03T21:15:10.966Z,9.63
2018-10-03T21:17:39.109Z,9.43
2018-10-03T21:20:07.261Z,9.60
2018-10-03T21:22:35.769Z,16.40
2018-10-03T21:25:03.991Z,11.07
2018-10-03T21:27:32.118Z,14.13
2018-10-03T21:30:00.291Z,11.50
2018-10-03T21:32:28.455Z,13.50
2018-10-03T21:34:56.590Z,8.10
2018-10-03T21:37:24.861Z,12.93
2018-10-03T21:39:53.009Z,13.73
2018-10-03T21:42:21.157Z,10.10
2018-10-03T21:44:49.307Z,8.83
2018-10-03T21:47:17.459Z,11.10
2018-10-03T21:49:46.717Z,14.27
2018-10-03T21:52:14.833Z,15.33
2018-10-03T21:54:43.765Z,12.80
2018-10-03T21:57:11.970Z,12.63
2018-10-03T21:59:40.186Z,15.33
2018-10-03T22:02:08.369Z,13.33
2018-10-03T22:04:36.546Z,15.83
2018-10-03T22:07:05.717Z,17.10
2018-10-03T22:09:33.873Z,18.53
2018-10-03T22:12:02.705Z,16.37
2018-10-03T22:14:31.688Z,12.20
2018-10-03T22:16:59.833Z,9.07
2018-10-03T22:19:28.009Z,13.47
2018-10-03T22:21:56.149Z,14.50
2018-10-03T22:24:24.301Z,12.20
2018-10-03T22:26:52.441Z,10.33
2018-10-03T22:29:20.580Z,18.00
2018-10-03T22:31:48.785Z,10.60
2018-10-03T22:34:16.925Z,14.80
2018-10-03T22:36:45.065Z,14.60
2018-10-03T22:39:13.248Z,14.07
2018-10-03T22:41:41.409Z,11.27
2018-10-03T22:44:09.552Z,22.50
2018-10-03T22:46:37.753Z,21.23
2018-10-03T22:49:05.904Z,18.83
2018-10-03T22:51:34.124Z,10.97
2018-10-03T22:54:02.351Z,18.47
2018-10-03T22:56:30.468Z,13.67
2018-10-03T22:58:58.657Z,14.53
2018-10-03T23:01:26.844Z,17.20
2018-10-03T23:03:55.033Z,14.80
2018-10-03T23:06:23.192Z,7.57
2018-10-03T23:08:51.361Z,10.93
2018-10-03T23:11:19.513Z,13.77
2018-10-03T23:13:47.665Z,11.83
2018-10-03T23:16:15.865Z,15.10
2018-10-03T23:18:44.013Z,15.33
2018-10-03T23:21:12.189Z,12.13
2018-10-03T23:23:40.382Z,13.33
2018-10-03T23:26:08.510Z,10.67
2018-10-03T23:28:36.852Z,16.63
2018-10-03T23:31:05.069Z,22.90
2018-10-03T23:33:33.597Z,12.10
2018-10-03T23:36:01.841Z,15.57
2018-10-03T23:38:30.029Z,11.73
2018-10-03T23:40:58.208Z,12.50
2018-10-03T23:43:26.387Z,11.67
2018-10-03T23:45:54.509Z,13.70
2018-10-03T23:48:22.629Z,12.50
2018-10-03T23:50:50.781Z,14.20
2018-10-03T23:53:18.961Z,13.10
2018-10-03T23:55:47.113Z,19.37
2018-10-03T23:58:15.270Z,15.13
